createdAt,value
2022-08-26T00:02:09.416Z,16.73
2022-08-26T00:04:40.180Z,15.85
2022-08-26T00:07:10.560Z,17.27
2022-08-26T00:09:40.758Z,15.90
2022-08-26T00:12:12.880Z,15.55
2022-08-26T00:14:43.700Z,15.70
2022-08-26T00:17:14.380Z,16.73
2022-08-26T00:19:45.350Z,15.20
2022-08-26T00:22:20.305Z,15.95
2022-08-26T00:24:51.950Z,14.02
2022-08-26T00:27:24.150Z,16.13
2022-08-26T00:29:55.760Z,16.02
2022-08-26T00:32:27.350Z,14.70
2022-08-26T00:34:57.460Z,16.58
2022-08-26T00:37:27.880Z,15.88
2022-08-26T00:40:00.814Z,15.05
2022-08-26T00:42:36.861Z,15.98
2022-08-26T00:45:11.610Z,15.52
2022-08-26T00:47:47.810Z,15.77
2022-08-26T00:50:21.862Z,16.30
2022-08-26T00:52:53.559Z,15.45
2022-08-26T00:55:37.706Z,14.38
2022-08-26T00:58:10.920Z,15.60
2022-08-26T01:00:41.527Z,16.45
2022-08-26T01:03:17.349Z,17.75
2022-08-26T01:05:48.378Z,17.92
2022-08-26T01:08:19.200Z,17.92
2022-08-26T01:10:49.871Z,18.02
2022-08-26T01:13:22.710Z,18.25
2022-08-26T01:15:58.583Z,17.40
2022-08-26T01:18:30.801Z,17.50
2022-08-26T01:21:07.290Z,16.80
2022-08-26T01:23:45.036Z,18.33
2022-08-26T01:26:19.995Z,19.50
2022-08-26T01:29:13.432Z,18.63
2022-08-26T01:31:47.716Z,19.67
2022-08-26T01:34:22.981Z,18.35
2022-08-26T01:37:04.700Z,19.10
2022-08-26T01:39:38.008Z,21.27
2022-08-26T01:42:14.440Z,19.08
2022-08-26T01:44:48.740Z,19.35
2022-08-26T01:47:21.930Z,19.15
2022-08-26T01:49:56.651Z,18.30
2022-08-26T01:52:32.882Z,18.55
2022-08-26T01:55:05.150Z,19.65
2022-08-26T01:57:36.080Z,19.58
2022-08-26T02:00:11.160Z,18.95
2022-08-26T02:02:45.920Z,19.73
2022-08-26T02:05:20.079Z,18.98
2022-08-26T02:07:51.558Z,19.95
2022-08-26T02:12:54.100Z,19.63
2022-08-26T02:15:24.540Z,20.48
2022-08-26T02:17:54.990Z,18.10
2022-08-26T02:20:28.540Z,20.70
2022-08-26T02:22:58.760Z,19.33
2022-08-26T02:25:37.077Z,20.83
2022-08-26T02:28:07.960Z,21.42
2022-08-26T02:30:42.041Z,21.13
2022-08-26T02:33:12.530Z,21.52
2022-08-26T02:35:43.651Z,19.90
2022-08-26T02:38:13.868Z,21.45
2022-08-26T02:40:45.900Z,21.67
2022-08-26T02:43:18.925Z,21.63
2022-08-26T02:46:02.499Z,21.20
2022-08-26T02:48:33.087Z,23.17
2022-08-26T02:51:04.205Z,20.70
2022-08-26T02:53:35.524Z,21.42
2022-08-26T02:56:10.372Z,23.67
2022-08-26T02:58:40.669Z,21.77
2022-08-26T03:01:20.588Z,22.65
2022-08-26T03:03:52.380Z,21.92
2022-08-26T03:06:23.438Z,22.98
2022-08-26T03:08:54.673Z,22.20
2022-08-26T03:11:32.253Z,25.52
2022-08-26T03:14:04.562Z,25.55
2022-08-26T03:16:37.227Z,24.38
2022-08-26T03:19:09.529Z,23.77
2022-08-26T03:21:40.538Z,22.85
2022-08-26T03:24:13.900Z,24.70
2022-08-26T03:26:52.752Z,25.73
2022-08-26T03:29:40.905Z,24.33
2022-08-26T03:32:11.809Z,23.65
2022-08-26T03:34:42.147Z,24.55
2022-08-26T03:37:12.939Z,23.98
2022-08-26T03:39:43.389Z,25.35
2022-08-26T03:42:15.560Z,22.58
2022-08-26T03:44:46.744Z,24.05
2022-08-26T03:47:17.638Z,24.90
2022-08-26T03:49:47.829Z,27.33
2022-08-26T03:52:18.489Z,24.80
2022-08-26T03:54:48.849Z,24.77
2022-08-26T03:57:21.109Z,24.88
2022-08-26T03:59:52.588Z,25.10
2022-08-26T04:02:24.280Z,26.70
2022-08-26T04:04:54.699Z,28.00
2022-08-26T04:07:26.389Z,25.60
2022-08-26T04:09:58.462Z,27.08
2022-08-26T04:12:30.931Z,25.52
2022-08-26T04:15:01.369Z,23.70
2022-08-26T04:17:33.707Z,24.67
2022-08-26T04:20:04.419Z,23.05
2022-08-26T04:22:35.327Z,26.25
2022-08-26T04:25:06.764Z,26.00
2022-08-26T04:27:39.116Z,25.63
2022-08-26T04:30:12.350Z,25.65
2022-08-26T04:32:43.942Z,26.73
2022-08-26T04:35:14.470Z,26.55
2022-08-26T04:37:45.589Z,28.35
2022-08-26T04:40:15.928Z,26.08
2022-08-26T04:42:48.119Z,28.17
2022-08-26T04:45:22.934Z,26.80
2022-08-26T04:47:56.720Z,27.75
2022-08-26T04:50:27.399Z,27.80
2022-08-26T04:52:58.361Z,29.02
2022-08-26T04:55:38.695Z,29.25
2022-08-26T04:58:12.100Z,29.23
2022-08-26T05:00:43.500Z,28.35
2022-08-26T05:03:14.039Z,28.13
2022-08-26T05:05:45.949Z,29.17
2022-08-26T05:08:18.190Z,27.15
2022-08-26T05:10:52.789Z,27.17
2022-08-26T05:13:26.558Z,30.08
2022-08-26T05:16:00.551Z,29.10
2022-08-26T05:18:32.128Z,30.50
2022-08-26T05:21:03.979Z,29.40
2022-08-26T05:23:38.079Z,29.65
2022-08-26T05:26:11.079Z,28.13
2022-08-26T05:28:43.258Z,27.75
2022-08-26T05:31:19.258Z,27.55
2022-08-26T05:33:50.210Z,26.13
2022-08-26T05:36:23.579Z,27.02
2022-08-26T05:38:58.089Z,25.30
2022-08-26T05:41:34.416Z,23.52
2022-08-26T05:44:10.558Z,26.73
2022-08-26T05:46:41.990Z,25.80
2022-08-26T05:49:16.821Z,25.17
2022-08-26T05:51:48.999Z,20.80
2022-08-26T05:54:22.204Z,17.20
2022-08-26T05:56:53.682Z,19.98
2022-08-26T05:59:25.830Z,18.40
2022-08-26T06:01:58.680Z,17.85
2022-08-26T06:04:29.699Z,18.48
2022-08-26T06:07:01.089Z,18.02
2022-08-26T06:09:32.009Z,20.25
2022-08-26T06:12:02.889Z,19.90
2022-08-26T06:14:35.949Z,19.38
2022-08-26T06:17:06.237Z,19.35
2022-08-26T06:19:41.448Z,20.85
2022-08-26T06:22:25.469Z,19.25
2022-08-26T06:25:13.589Z,19.52
2022-08-26T06:27:44.855Z,19.15
2022-08-26T06:30:17.359Z,18.75
2022-08-26T06:32:49.436Z,19.70
2022-08-26T06:37:51.351Z,17.60
2022-08-26T06:40:25.283Z,18.73
2022-08-26T06:42:56.359Z,19.45
2022-08-26T06:45:28.560Z,17.13
2022-08-26T06:47:58.940Z,16.88
2022-08-26T06:50:30.238Z,15.65
2022-08-26T06:58:02.069Z,12.40
2022-08-26T07:00:38.672Z,13.70
2022-08-26T07:03:12.058Z,13.95
2022-08-26T07:05:43.661Z,14.60
2022-08-26T07:08:15.500Z,15.05
2022-08-26T07:10:46.620Z,15.05
2022-08-26T07:13:17.050Z,14.40
2022-08-26T07:16:04.426Z,13.65
2022-08-26T07:18:38.579Z,15.02
2022-08-26T07:21:12.069Z,14.68
2022-08-26T07:23:44.879Z,13.50
2022-08-26T07:26:19.480Z,12.60
2022-08-26T07:28:53.389Z,14.40
2022-08-26T07:31:27.875Z,13.40
2022-08-26T07:34:00.340Z,12.73
2022-08-26T07:36:31.670Z,14.07
2022-08-26T07:39:01.976Z,12.02
2022-08-26T07:41:32.590Z,10.68
2022-08-26T07:44:03.059Z,11.60
2022-08-26T07:46:36.510Z,13.27
2022-08-26T07:49:07.347Z,12.20
2022-08-26T07:54:09.239Z,12.23
2022-08-26T07:56:39.909Z,11.07
2022-08-26T07:59:15.267Z,10.02
2022-08-26T08:01:48.246Z,10.88
2022-08-26T08:04:26.233Z,10.88
2022-08-26T08:06:58.059Z,11.48
2022-08-26T08:09:30.659Z,12.00
2022-08-26T08:12:01.361Z,11.05
2022-08-26T08:14:32.132Z,11.38
2022-08-26T08:17:04.650Z,10.93
2022-08-26T08:19:36.667Z,10.05
2022-08-26T08:22:17.255Z,10.77
2022-08-26T08:24:52.849Z,10.77
2022-08-26T08:27:24.431Z,9.90
2022-08-26T08:32:30.458Z,9.45
2022-08-26T08:35:01.212Z,10.88
2022-08-26T08:37:32.079Z,10.05
2022-08-26T08:40:02.941Z,9.70
2022-08-26T08:42:41.145Z,8.88
2022-08-26T08:45:15.653Z,10.27
2022-08-26T08:47:54.869Z,9.65
2022-08-26T08:50:30.359Z,8.40
2022-08-26T08:53:14.326Z,9.98
2022-08-26T08:56:00.931Z,10.25
2022-08-26T08:58:46.422Z,10.90
2022-08-26T09:01:36.612Z,9.60
2022-08-26T09:04:33.596Z,9.90
2022-08-26T09:07:06.941Z,9.93
2022-08-26T09:09:42.241Z,10.35
2022-08-26T09:12:20.709Z,8.88
2022-08-26T09:15:05.202Z,9.13
2022-08-26T09:17:49.368Z,8.85
2022-08-26T09:20:32.018Z,9.80
2022-08-26T09:23:02.495Z,9.48
2022-08-26T09:25:33.479Z,9.00
2022-08-26T09:28:04.455Z,8.80
2022-08-26T09:30:37.071Z,7.68
2022-08-26T09:33:11.109Z,8.88
2022-08-26T09:35:47.735Z,7.65
2022-08-26T09:38:26.656Z,7.75
2022-08-26T09:41:00.799Z,8.50
2022-08-26T09:43:31.640Z,7.47
2022-08-26T09:46:16.862Z,7.13
2022-08-26T09:48:48.227Z,8.32
2022-08-26T09:51:31.805Z,7.63
2022-08-26T09:54:05.589Z,7.93
2022-08-26T09:56:39.989Z,7.20
2022-08-26T09:59:12.888Z,6.78
2022-08-26T10:01:45.303Z,7.03
2022-08-26T10:04:23.720Z,6.60
2022-08-26T10:07:02.018Z,7.22
2022-08-26T10:09:35.880Z,7.05
2022-08-26T10:12:09.997Z,5.53
2022-08-26T10:14:47.123Z,6.13
2022-08-26T10:17:25.400Z,5.30
2022-08-26T10:20:00.385Z,5.75
2022-08-26T10:22:39.150Z,5.57
2022-08-26T10:25:14.852Z,5.35
2022-08-26T10:27:53.564Z,5.90
2022-08-26T10:30:31.579Z,5.53
2022-08-26T10:33:06.764Z,5.10
2022-08-26T10:35:44.418Z,5.70
2022-08-26T10:38:19.770Z,6.15
2022-08-26T10:40:56.869Z,5.72
2022-08-26T10:43:31.467Z,5.82
2022-08-26T10:46:06.956Z,6.00
2022-08-26T10:48:48.280Z,6.18
2022-08-26T10:51:23.979Z,6.57
2022-08-26T10:54:03.365Z,5.75
2022-08-26T10:56:48.729Z,6.88
2022-08-26T10:59:30.919Z,7.53
2022-08-26T11:02:09.419Z,5.50
2022-08-26T11:07:45.309Z,5.95
2022-08-26T11:10:58.986Z,4.55
2022-08-26T11:14:04.669Z,4.32
2022-08-26T11:16:43.589Z,4.13
2022-08-26T11:19:56.772Z,4.63
2022-08-26T11:22:31.369Z,5.07
2022-08-26T11:25:08.356Z,5.13
2022-08-26T11:28:00.534Z,4.68
2022-08-26T11:30:58.073Z,4.20
2022-08-26T11:33:59.693Z,4.03
2022-08-26T11:36:57.670Z,4.85
2022-08-26T11:39:38.950Z,4.25
2022-08-26T11:42:27.740Z,4.63
2022-08-26T11:45:05.434Z,4.35
2022-08-26T11:47:36.180Z,3.75
2022-08-26T11:50:12.962Z,4.75
2022-08-26T11:52:51.844Z,4.90
2022-08-26T11:55:23.412Z,4.15
2022-08-26T11:57:58.069Z,4.68
2022-08-26T12:00:34.699Z,4.82
2022-08-26T12:03:09.832Z,4.88
2022-08-26T12:05:46.679Z,4.22
2022-08-26T12:08:21.779Z,3.42
2022-08-26T12:11:03.319Z,4.32
2022-08-26T12:13:33.859Z,4.93
2022-08-26T12:16:07.448Z,5.28
2022-08-26T12:18:40.515Z,10.98
2022-08-26T12:21:24.381Z,6.15
2022-08-26T12:23:56.679Z,9.05
2022-08-26T12:26:30.169Z,4.53
2022-08-26T12:29:18.073Z,4.82
2022-08-26T12:31:53.085Z,3.60
2022-08-26T12:34:24.551Z,3.90
2022-08-26T12:39:37.549Z,3.95
2022-08-26T12:42:23.808Z,4.38
2022-08-26T12:45:03.660Z,3.90
2022-08-26T12:47:43.188Z,4.40
2022-08-26T12:50:20.433Z,4.05
2022-08-26T12:52:59.484Z,3.90
2022-08-26T12:55:40.318Z,4.32
2022-08-26T12:58:26.671Z,3.83
2022-08-26T13:01:00.269Z,3.92
2022-08-26T13:03:43.947Z,4.15
2022-08-26T13:06:27.687Z,4.43
2022-08-26T13:09:00.946Z,3.65
2022-08-26T13:11:34.425Z,4.13
2022-08-26T13:14:09.235Z,4.10
2022-08-26T13:16:42.245Z,4.03
2022-08-26T13:19:17.740Z,5.07
2022-08-26T13:21:50.168Z,4.20
2022-08-26T13:24:25.188Z,4.68
2022-08-26T13:26:56.524Z,4.38
2022-08-26T13:29:27.171Z,4.57
2022-08-26T13:31:59.725Z,4.47
2022-08-26T13:34:33.615Z,4.97
2022-08-26T13:37:05.024Z,5.10
2022-08-26T13:39:35.625Z,3.67
2022-08-26T13:42:06.164Z,4.30
2022-08-26T13:44:39.263Z,4.75
2022-08-26T13:47:10.185Z,4.15
2022-08-26T13:49:43.965Z,4.90
2022-08-26T13:52:15.144Z,4.70
2022-08-26T13:54:45.905Z,4.65
2022-08-26T13:57:16.266Z,4.45
2022-08-26T13:59:46.846Z,5.05
2022-08-26T14:02:17.254Z,5.28
2022-08-26T14:04:49.385Z,5.13
2022-08-26T14:07:19.774Z,4.38
2022-08-26T14:09:50.534Z,4.82
2022-08-26T14:12:21.338Z,4.82
2022-08-26T14:14:52.034Z,5.15
2022-08-26T14:19:55.579Z,4.57
2022-08-26T14:22:26.234Z,4.07
2022-08-26T14:24:56.956Z,4.72
2022-08-26T14:29:57.474Z,4.47
2022-08-26T14:32:32.515Z,4.35
2022-08-26T14:35:05.024Z,3.90
2022-08-26T14:37:35.385Z,4.40
2022-08-26T14:42:38.573Z,4.18
2022-08-26T14:45:13.986Z,4.90
2022-08-26T14:47:44.414Z,4.20
2022-08-26T14:50:18.427Z,4.10
2022-08-26T14:53:06.050Z,5.22
2022-08-26T14:55:39.798Z,4.15
2022-08-26T14:58:11.073Z,4.57
2022-08-26T15:00:41.845Z,4.68
2022-08-26T15:03:12.179Z,4.57
2022-08-26T15:05:48.082Z,4.30
2022-08-26T15:08:18.667Z,4.18
2022-08-26T15:10:49.436Z,4.85
2022-08-26T15:15:50.802Z,4.78
2022-08-26T15:18:25.677Z,5.15
2022-08-26T15:20:59.327Z,4.60
2022-08-26T15:23:29.669Z,4.25
2022-08-26T15:26:02.861Z,5.05
2022-08-26T15:28:35.087Z,4.90
2022-08-26T15:31:06.881Z,4.72
2022-08-26T15:33:37.805Z,4.72
2022-08-26T15:36:11.206Z,4.63
2022-08-26T15:38:43.016Z,4.63
2022-08-26T15:41:14.837Z,4.70
2022-08-26T15:43:45.396Z,3.88
2022-08-26T15:46:16.492Z,4.95
2022-08-26T15:48:47.016Z,4.45
2022-08-26T15:53:56.715Z,4.97
2022-08-26T15:56:28.876Z,4.63
2022-08-26T15:59:01.056Z,4.85
2022-08-26T16:01:36.273Z,4.65
2022-08-26T16:04:07.652Z,4.80
2022-08-26T16:06:43.783Z,5.30
2022-08-26T16:09:15.327Z,4.70
2022-08-26T16:11:47.999Z,4.88
2022-08-26T16:14:19.118Z,4.63
2022-08-26T16:16:50.236Z,4.65
2022-08-26T16:19:21.827Z,4.82
2022-08-26T16:21:56.829Z,5.38
2022-08-26T16:24:30.522Z,4.75
2022-08-26T16:27:02.869Z,5.00
2022-08-26T16:29:33.263Z,4.75
2022-08-26T16:32:08.985Z,5.57
2022-08-26T16:34:47.138Z,5.13
2022-08-26T16:37:28.939Z,5.68
2022-08-26T16:39:59.365Z,4.90
2022-08-26T16:45:01.781Z,5.10
2022-08-26T16:47:32.611Z,5.03
2022-08-26T16:50:03.577Z,5.35
2022-08-26T16:52:35.760Z,5.65
2022-08-26T16:55:07.645Z,5.80
2022-08-26T16:57:39.780Z,4.97
2022-08-26T17:00:13.920Z,5.03
2022-08-26T17:02:44.932Z,4.95
2022-08-26T17:05:15.829Z,5.20
2022-08-26T17:07:47.989Z,5.10
2022-08-26T17:10:18.449Z,4.95
2022-08-26T17:15:20.747Z,6.78
2022-08-26T17:17:51.770Z,5.97
2022-08-26T17:22:56.829Z,6.45
2022-08-26T17:25:32.416Z,6.60
2022-08-26T17:28:04.653Z,7.28
2022-08-26T17:30:43.816Z,7.13
2022-08-26T17:33:18.677Z,7.35
2022-08-26T17:35:55.599Z,7.25
2022-08-26T17:38:29.518Z,7.28
2022-08-26T17:41:00.399Z,7.97
2022-08-26T17:43:31.461Z,8.43
2022-08-26T17:46:06.848Z,8.00
2022-08-26T17:48:39.724Z,7.97
2022-08-26T17:51:11.455Z,8.55
2022-08-26T17:53:44.105Z,8.57
2022-08-26T17:56:18.635Z,8.48
2022-08-26T17:58:53.157Z,8.40
2022-08-26T18:01:26.465Z,8.00
2022-08-26T18:04:00.413Z,9.27
2022-08-26T18:06:32.509Z,8.57
2022-08-26T18:09:05.060Z,8.70
2022-08-26T18:11:37.789Z,9.38
2022-08-26T18:14:08.529Z,9.73
2022-08-26T18:16:41.923Z,9.75
2022-08-26T18:19:13.659Z,10.52
2022-08-26T18:21:44.009Z,11.00
2022-08-26T18:24:16.259Z,9.25
2022-08-26T18:26:49.179Z,11.25
2022-08-26T18:29:22.276Z,9.82
2022-08-26T18:31:52.751Z,9.48
2022-08-26T18:34:23.997Z,9.40
2022-08-26T18:37:03.484Z,9.57
2022-08-26T18:39:35.800Z,9.73
2022-08-26T18:42:06.159Z,10.40
2022-08-26T18:44:37.410Z,9.85
2022-08-26T18:49:39.361Z,10.65
2022-08-26T18:52:11.058Z,10.82
2022-08-26T18:54:43.820Z,10.40
2022-08-26T18:57:14.170Z,10.38
2022-08-26T18:59:44.641Z,9.95
2022-08-26T19:02:15.233Z,11.53
2022-08-26T19:04:45.780Z,10.38
2022-08-26T19:07:17.163Z,10.90
2022-08-26T19:09:49.179Z,11.70
2022-08-26T19:12:28.497Z,10.85
2022-08-26T19:14:59.119Z,11.93
2022-08-26T19:17:30.986Z,12.23
2022-08-26T19:20:02.414Z,11.30
2022-08-26T19:22:33.009Z,11.57
2022-08-26T19:25:05.678Z,12.32
2022-08-26T19:27:37.245Z,10.52
2022-08-26T19:30:10.518Z,11.93
2022-08-26T19:32:41.068Z,11.52
2022-08-26T19:35:13.057Z,12.45
2022-08-26T19:37:44.786Z,12.45
2022-08-26T19:40:17.138Z,11.32
2022-08-26T19:42:49.887Z,12.70
2022-08-26T19:48:01.233Z,13.35
2022-08-26T19:50:36.400Z,12.23
2022-08-26T19:53:13.571Z,11.80
2022-08-26T19:55:49.089Z,11.20
2022-08-26T19:58:26.741Z,11.50
2022-08-26T20:00:58.692Z,10.95
2022-08-26T20:03:29.290Z,12.40
2022-08-26T20:06:02.244Z,11.75
2022-08-26T20:08:35.468Z,12.02
2022-08-26T20:11:15.905Z,12.48
2022-08-26T20:13:48.520Z,11.55
2022-08-26T20:16:23.453Z,11.80
2022-08-26T20:19:13.049Z,12.70
2022-08-26T20:21:51.284Z,12.52
2022-08-26T20:24:29.614Z,12.38
2022-08-26T20:27:08.080Z,11.48
2022-08-26T20:29:39.714Z,13.40
2022-08-26T20:32:12.442Z,12.50
2022-08-26T20:34:45.423Z,13.60
2022-08-26T20:37:18.217Z,14.10
2022-08-26T20:39:52.996Z,12.60
2022-08-26T20:42:25.146Z,13.50
2022-08-26T20:44:58.682Z,14.02
2022-08-26T20:47:35.144Z,13.73
2022-08-26T20:50:11.346Z,13.38
2022-08-26T20:52:44.238Z,13.15
2022-08-26T20:55:17.880Z,12.65
2022-08-26T20:57:51.769Z,12.45
2022-08-26T21:00:26.563Z,11.98
2022-08-26T21:02:58.848Z,12.73
2022-08-26T21:05:29.129Z,12.73
2022-08-26T21:07:59.812Z,12.75
2022-08-26T21:10:30.779Z,12.93
2022-08-26T21:13:02.888Z,12.80
2022-08-26T21:15:33.180Z,12.55
2022-08-26T21:18:04.299Z,12.80
2022-08-26T21:20:34.748Z,14.23
2022-08-26T21:23:05.578Z,14.00
2022-08-26T21:25:35.908Z,13.80
2022-08-26T21:28:08.545Z,12.60
2022-08-26T21:30:40.879Z,13.45
2022-08-26T21:33:11.698Z,13.90
2022-08-26T21:35:42.897Z,14.40
2022-08-26T21:38:13.429Z,14.05
2022-08-26T21:40:43.748Z,13.60
2022-08-26T21:43:16.234Z,13.18
2022-08-26T21:46:11.780Z,13.18
2022-08-26T21:48:45.671Z,13.90
2022-08-26T21:51:19.900Z,12.77
2022-08-26T21:53:53.105Z,13.40
2022-08-26T21:56:28.049Z,13.25
2022-08-26T21:59:01.535Z,13.00
2022-08-26T22:01:36.168Z,13.93
2022-08-26T22:04:09.709Z,13.45
2022-08-26T22:06:45.175Z,12.93
2022-08-26T22:09:18.008Z,13.70
2022-08-26T22:11:48.658Z,14.10
2022-08-26T22:14:23.938Z,13.75
2022-08-26T22:16:57.500Z,13.75
2022-08-26T22:19:28.153Z,13.57
2022-08-26T22:21:58.971Z,13.38
2022-08-26T22:24:30.162Z,13.63
2022-08-26T22:27:00.589Z,13.82
2022-08-26T22:29:32.672Z,12.68
2022-08-26T22:32:03.276Z,13.65
2022-08-26T22:34:34.989Z,12.98
2022-08-26T22:37:05.361Z,14.32
2022-08-26T22:39:35.753Z,14.20
2022-08-26T22:42:07.428Z,13.50
2022-08-26T22:44:39.349Z,14.82
2022-08-26T22:47:09.538Z,13.00
2022-08-26T22:49:40.239Z,13.48
2022-08-26T22:52:10.349Z,13.38
2022-08-26T22:54:40.529Z,14.10
2022-08-26T22:57:11.029Z,14.43
2022-08-26T22:59:42.771Z,12.87
2022-08-26T23:02:13.616Z,13.27
2022-08-26T23:04:43.669Z,13.77
2022-08-26T23:07:14.069Z,13.68
2022-08-26T23:09:44.169Z,14.27
2022-08-26T23:12:14.391Z,13.10
2022-08-26T23:14:46.459Z,14.43
2022-08-26T23:17:16.822Z,15.65
2022-08-26T23:19:47.158Z,14.18
2022-08-26T23:22:17.864Z,14.05
2022-08-26T23:24:48.271Z,13.45
2022-08-26T23:27:18.370Z,14.27
2022-08-26T23:29:49.889Z,12.95
2022-08-26T23:32:20.339Z,12.75
2022-08-26T23:34:59.837Z,15.20
2022-08-26T23:37:33.819Z,15.13
2022-08-26T23:40:09.260Z,13.80
2022-08-26T23:42:39.810Z,14.20
2022-08-26T23:45:14.265Z,14.25
2022-08-26T23:47:44.741Z,13.52
2022-08-26T23:50:15.902Z,14.70
2022-08-26T23:53:03.481Z,13.85
2022-08-26T23:55:36.229Z,13.73
2022-08-26T23:58:07.359Z,12.57
